createdAt,value
2018-08-14T00:00:40.600Z,83.20
2018-08-14T00:03:16.009Z,83.10
2018-08-14T00:05:47.216Z,83.70
2018-08-14T00:08:16.564Z,83.30
2018-08-14T00:10:45.689Z,83.80
2018-08-14T00:13:15.523Z,84.00
2018-08-14T00:15:47.013Z,83.70
2018-08-14T00:18:16.066Z,84.10
2018-08-14T00:20:45.440Z,84.50
2018-08-14T00:23:14.536Z,84.20
2018-08-14T00:25:44.692Z,84.00
2018-08-14T00:28:13.842Z,83.60
2018-08-14T00:30:42.913Z,83.70
2018-08-14T00:33:11.973Z,83.60
2018-08-14T00:35:41.085Z,83.40
2018-08-14T00:38:10.179Z,82.80
2018-08-14T00:40:39.330Z,83.10
2018-08-14T00:43:09.656Z,82.20
2018-08-14T00:45:38.797Z,82.90
2018-08-14T00:48:08.406Z,83.00
2018-08-14T00:50:37.733Z,82.80
2018-08-14T00:53:06.877Z,83.10
2018-08-14T00:55:37.873Z,82.80
2018-08-14T00:58:07.066Z,82.60
2018-08-14T01:00:38.005Z,82.00
2018-08-14T01:03:11.868Z,83.40
2018-08-14T01:05:40.913Z,82.90
2018-08-14T01:08:10.004Z,83.10
2018-08-14T01:10:39.093Z,83.30
2018-08-14T01:13:09.229Z,82.70
2018-08-14T01:15:38.289Z,83.20
2018-08-14T01:18:13.081Z,84.10
2018-08-14T01:20:48.086Z,83.80
2018-08-14T01:23:19.493Z,84.40
2018-08-14T01:25:48.557Z,84.30
2018-08-14T01:28:17.608Z,85.50
2018-08-14T01:30:46.708Z,85.70
2018-08-14T01:33:15.709Z,86.40
2018-08-14T01:35:46.474Z,86.20
2018-08-14T01:38:15.504Z,86.30
2018-08-14T01:40:44.529Z,86.40
2018-08-14T01:43:13.557Z,86.30
2018-08-14T01:45:43.485Z,86.50
2018-08-14T01:48:12.500Z,85.80
2018-08-14T01:50:42.567Z,85.80
2018-08-14T01:53:11.648Z,86.10
2018-08-14T01:55:40.693Z,85.50
2018-08-14T01:58:10.182Z,86.00
2018-08-14T02:00:39.228Z,86.00
2018-08-14T02:03:09.897Z,86.00
2018-08-14T02:05:38.929Z,85.70
2018-08-14T02:08:07.992Z,85.50
2018-08-14T02:10:37.877Z,85.40
2018-08-14T02:13:07.251Z,85.20
2018-08-14T02:15:36.328Z,84.90
2018-08-14T02:18:07.886Z,84.20
2018-08-14T02:20:36.957Z,84.10
2018-08-14T02:23:06.044Z,83.70
2018-08-14T02:25:35.111Z,84.30
2018-08-14T02:28:04.826Z,83.60
2018-08-14T02:30:33.903Z,83.80
2018-08-14T02:33:02.985Z,84.10
2018-08-14T02:35:32.977Z,83.90
2018-08-14T02:38:02.380Z,83.70
2018-08-14T02:40:31.545Z,83.70
2018-08-14T02:43:00.532Z,83.40
2018-08-14T02:45:29.574Z,83.70
2018-08-14T02:47:58.611Z,83.40
2018-08-14T02:50:27.697Z,83.10
2018-08-14T02:52:58.224Z,83.40
2018-08-14T02:55:27.270Z,83.20
2018-08-14T02:57:56.302Z,83.10
2018-08-14T03:00:27.746Z,82.30
2018-08-14T03:02:57.355Z,82.20
2018-08-14T03:05:26.890Z,82.00
2018-08-14T03:07:55.994Z,82.40
2018-08-14T03:10:24.993Z,82.60
2018-08-14T03:12:54.522Z,82.10
2018-08-14T03:15:24.094Z,82.10
2018-08-14T03:17:56.177Z,82.90
2018-08-14T03:20:25.277Z,82.10
2018-08-14T03:22:56.069Z,82.20
2018-08-14T03:25:25.090Z,82.50
2018-08-14T03:27:54.133Z,82.30
2018-08-14T03:30:23.500Z,82.40
2018-08-14T03:32:52.591Z,82.20
2018-08-14T03:35:21.677Z,81.10
2018-08-14T03:37:51.036Z,81.80
2018-08-14T03:40:20.512Z,81.80
2018-08-14T03:42:50.175Z,81.40
2018-08-14T03:45:19.262Z,81.10
2018-08-14T03:47:48.280Z,81.30
2018-08-14T03:50:17.313Z,81.50
2018-08-14T03:52:46.384Z,81.80
2018-08-14T03:55:19.812Z,81.50
2018-08-14T03:57:48.869Z,81.20
2018-08-14T04:00:18.943Z,82.10
2018-08-14T04:02:47.985Z,82.10
2018-08-14T04:05:17.060Z,82.60
2018-08-14T04:07:46.305Z,82.60
2018-08-14T04:10:15.525Z,82.70
2018-08-14T04:12:44.556Z,82.20
2018-08-14T04:15:14.206Z,82.10
2018-08-14T04:17:42.744Z,82.10
2018-08-14T04:20:12.217Z,82.50
2018-08-14T04:22:41.041Z,82.30
2018-08-14T04:25:10.642Z,82.10
2018-08-14T04:27:39.641Z,81.60
2018-08-14T04:30:13.053Z,82.50
2018-08-14T04:32:42.462Z,80.90
2018-08-14T04:35:11.041Z,82.40
2018-08-14T04:37:39.600Z,82.40
2018-08-14T04:40:09.401Z,82.30
2018-08-14T04:42:37.945Z,81.90
2018-08-14T04:45:06.681Z,82.30
2018-08-14T04:47:35.407Z,81.90
2018-08-14T04:50:04.519Z,81.80
2018-08-14T04:52:33.036Z,82.00
2018-08-14T04:55:01.603Z,81.40
2018-08-14T04:57:30.157Z,81.70
2018-08-14T04:59:59.205Z,81.50
2018-08-14T05:02:28.274Z,81.80
2018-08-14T05:04:57.309Z,82.50
2018-08-14T05:07:26.642Z,81.70
2018-08-14T05:09:55.717Z,81.40
2018-08-14T05:12:24.757Z,81.90
2018-08-14T05:14:53.797Z,81.40
2018-08-14T05:17:22.834Z,81.50
2018-08-14T05:19:51.926Z,80.90
2018-08-14T05:22:20.941Z,81.10
2018-08-14T05:24:50.006Z,80.50
2018-08-14T05:27:19.089Z,81.00
2018-08-14T05:29:48.112Z,80.00
2018-08-14T05:32:17.229Z,80.00
2018-08-14T05:34:46.280Z,79.70
2018-08-14T05:37:15.390Z,80.00
2018-08-14T05:39:44.530Z,79.80
2018-08-14T05:42:13.604Z,79.00
2018-08-14T05:44:42.628Z,78.90
2018-08-14T05:47:11.683Z,78.40
2018-08-14T05:49:40.803Z,78.80
2018-08-14T05:52:09.959Z,78.10
2018-08-14T05:54:39.118Z,78.70
2018-08-14T05:57:08.309Z,78.60
2018-08-14T05:59:37.445Z,78.00
2018-08-14T06:02:06.606Z,78.30
2018-08-14T06:04:35.642Z,79.20
2018-08-14T06:07:04.811Z,79.30
2018-08-14T06:09:33.850Z,79.10
2018-08-14T06:12:02.875Z,79.10
2018-08-14T06:14:31.933Z,79.50
2018-08-14T06:17:00.982Z,79.20
2018-08-14T06:19:30.021Z,79.20
2018-08-14T06:21:59.057Z,78.90
2018-08-14T06:24:28.185Z,78.80
2018-08-14T06:26:57.338Z,79.50
2018-08-14T06:29:26.348Z,79.90
2018-08-14T06:31:55.881Z,79.50
2018-08-14T06:34:24.956Z,79.90
2018-08-14T06:36:53.998Z,80.20
2018-08-14T06:39:23.084Z,80.70
2018-08-14T06:41:52.124Z,82.40
2018-08-14T06:44:21.221Z,80.60
2018-08-14T06:46:50.290Z,80.00
2018-08-14T06:49:19.369Z,80.00
2018-08-14T06:51:48.453Z,80.40
2018-08-14T06:54:17.511Z,80.20
2018-08-14T06:56:46.917Z,80.20
2018-08-14T06:59:16.052Z,79.50
2018-08-14T07:01:45.093Z,80.70
2018-08-14T07:04:14.273Z,80.50
2018-08-14T07:06:43.287Z,79.90
2018-08-14T07:09:12.375Z,80.40
2018-08-14T07:11:41.443Z,80.70
2018-08-14T07:14:10.697Z,79.70
2018-08-14T07:16:39.889Z,79.80
2018-08-14T07:19:10.290Z,79.40
2018-08-14T07:21:39.539Z,78.50
2018-08-14T07:24:08.815Z,79.10
2018-08-14T07:26:37.954Z,79.00
2018-08-14T07:29:07.098Z,78.80
2018-08-14T07:31:36.184Z,79.70
2018-08-14T07:34:05.306Z,78.70
2018-08-14T07:36:34.320Z,80.70
2018-08-14T07:39:04.410Z,80.10
2018-08-14T07:41:33.397Z,81.20
2018-08-14T07:44:02.445Z,81.50
2018-08-14T07:46:31.464Z,81.00
2018-08-14T07:49:00.516Z,80.60
2018-08-14T07:51:29.557Z,81.00
2018-08-14T07:53:58.581Z,79.70
2018-08-14T07:56:27.625Z,78.20
2018-08-14T07:58:56.686Z,76.90
2018-08-14T08:01:25.702Z,76.00
2018-08-14T08:03:54.748Z,75.80
2018-08-14T08:06:23.813Z,76.90
2018-08-14T08:08:52.833Z,76.80
2018-08-14T08:11:21.982Z,78.20
2018-08-14T08:13:50.561Z,77.30
2018-08-14T08:16:19.129Z,76.90
2018-08-14T08:18:48.124Z,77.30
2018-08-14T08:21:17.178Z,76.10
2018-08-14T08:23:46.199Z,75.60
2018-08-14T08:26:15.255Z,71.20
2018-08-14T08:28:44.266Z,70.10
2018-08-14T08:31:13.348Z,69.90
2018-08-14T08:33:42.409Z,68.80
2018-08-14T08:36:11.498Z,68.90
2018-08-14T08:38:40.566Z,69.60
2018-08-14T08:41:09.741Z,70.00
2018-08-14T08:43:38.846Z,70.00
2018-08-14T08:46:07.936Z,70.80
2018-08-14T08:48:36.990Z,71.60
2018-08-14T08:51:06.612Z,72.40
2018-08-14T08:53:35.628Z,72.20
2018-08-14T08:56:04.674Z,71.50
2018-08-14T08:58:33.738Z,70.10
2018-08-14T09:01:02.838Z,71.00
2018-08-14T09:03:31.959Z,70.90
2018-08-14T09:06:01.043Z,71.70
2018-08-14T09:08:30.440Z,73.60
2018-08-14T09:10:59.541Z,75.00
2018-08-14T09:13:28.667Z,77.60
2018-08-14T09:15:57.784Z,77.70
2018-08-14T09:18:26.874Z,76.50
2018-08-14T09:20:55.999Z,76.40
2018-08-14T09:23:25.070Z,76.00
2018-08-14T09:25:54.157Z,74.90
2018-08-14T09:28:23.258Z,76.30
2018-08-14T09:30:52.387Z,75.80
2018-08-14T09:33:21.474Z,74.40
2018-08-14T09:35:50.617Z,73.60
2018-08-14T09:38:19.761Z,74.00
2018-08-14T09:40:50.078Z,73.00
2018-08-14T09:43:19.181Z,71.50
2018-08-14T09:45:49.672Z,71.20
2018-08-14T09:48:18.853Z,71.80
2018-08-14T09:50:48.017Z,71.30
2018-08-14T09:53:17.121Z,69.10
2018-08-14T09:55:46.233Z,68.90
2018-08-14T09:58:15.772Z,65.70
2018-08-14T10:00:50.259Z,63.30
2018-08-14T10:03:24.657Z,59.30
2018-08-14T10:05:58.968Z,58.50
2018-08-14T10:08:28.200Z,56.90
2018-08-14T10:10:57.321Z,56.40
2018-08-14T10:13:26.464Z,58.20
2018-08-14T10:15:55.661Z,57.60
2018-08-14T10:18:26.078Z,59.10
2018-08-14T10:20:55.300Z,61.00
2018-08-14T10:23:26.135Z,62.50
2018-08-14T10:25:55.210Z,63.30
2018-08-14T10:28:25.151Z,62.90
2018-08-14T10:30:54.477Z,61.30
2018-08-14T10:33:23.564Z,61.70
2018-08-14T10:35:52.688Z,62.70
2018-08-14T10:38:21.805Z,63.30
2018-08-14T10:40:51.201Z,64.20
2018-08-14T10:43:20.328Z,63.60
2018-08-14T10:45:49.418Z,62.10
2018-08-14T10:48:18.517Z,61.10
2018-08-14T10:50:47.565Z,59.60
2018-08-14T10:53:16.753Z,58.50
2018-08-14T10:55:45.797Z,59.20
2018-08-14T10:58:15.244Z,59.30
2018-08-14T11:00:44.255Z,59.70
2018-08-14T11:03:13.345Z,59.30
2018-08-14T11:05:42.461Z,60.00
2018-08-14T11:08:11.513Z,59.80
2018-08-14T11:11:46.641Z,60.60
2018-08-14T11:14:16.361Z,60.70
2018-08-14T11:16:45.933Z,59.40
2018-08-14T11:19:15.021Z,57.90
2018-08-14T11:21:44.084Z,58.00
2018-08-14T11:24:13.184Z,58.40
2018-08-14T11:26:42.242Z,58.60
2018-08-14T11:29:11.309Z,59.70
2018-08-14T11:31:40.451Z,60.90
2018-08-14T11:34:09.560Z,60.60
2018-08-14T11:36:38.990Z,61.10
2018-08-14T11:39:09.364Z,60.50
2018-08-14T11:41:38.589Z,59.70
2018-08-14T11:44:08.019Z,59.30
2018-08-14T11:46:37.308Z,58.30
2018-08-14T11:49:06.447Z,56.50
2018-08-14T11:51:35.492Z,54.90
2018-08-14T11:54:04.760Z,55.60
2018-08-14T11:56:33.875Z,56.20
2018-08-14T11:59:03.596Z,57.10
2018-08-14T12:01:32.680Z,58.30
2018-08-14T12:04:01.717Z,58.90
2018-08-14T12:06:31.257Z,58.60
2018-08-14T12:09:00.304Z,57.20
2018-08-14T12:11:29.365Z,56.70
2018-08-14T12:13:58.401Z,56.60
2018-08-14T12:16:27.467Z,57.10
2018-08-14T12:18:56.689Z,58.10
2018-08-14T12:21:25.740Z,58.70
2018-08-14T12:23:54.845Z,58.90
2018-08-14T12:26:23.943Z,59.40
2018-08-14T12:28:52.981Z,58.50
2018-08-14T12:31:26.878Z,56.70
2018-08-14T12:34:02.482Z,55.10
2018-08-14T12:36:33.406Z,54.50
2018-08-14T12:39:05.214Z,54.10
2018-08-14T12:41:35.533Z,54.90
2018-08-14T12:44:06.396Z,56.40
2018-08-14T12:46:37.291Z,57.00
2018-08-14T12:49:07.269Z,57.30
2018-08-14T12:51:41.839Z,56.90
2018-08-14T12:54:11.951Z,57.00
2018-08-14T12:56:41.809Z,56.00
2018-08-14T12:59:11.493Z,54.80
2018-08-14T13:01:41.662Z,53.10
2018-08-14T13:04:11.423Z,52.00
2018-08-14T13:06:54.768Z,51.50
2018-08-14T13:09:27.514Z,51.30
2018-08-14T13:11:59.202Z,51.60
2018-08-14T13:14:30.289Z,51.80
2018-08-14T13:17:01.990Z,51.10
2018-08-14T13:22:35.483Z,51.50
2018-08-14T13:25:07.792Z,51.60
2018-08-14T13:27:37.282Z,52.50
2018-08-14T13:30:09.194Z,53.10
2018-08-14T13:32:38.397Z,52.90
2018-08-14T13:35:07.508Z,53.50
2018-08-14T13:37:36.683Z,54.40
2018-08-14T13:40:06.465Z,54.40
2018-08-14T13:42:35.520Z,54.60
2018-08-14T13:45:05.624Z,55.60
2018-08-14T13:47:34.734Z,56.10
2018-08-14T13:50:04.490Z,55.80
2018-08-14T13:52:33.718Z,55.70
2018-08-14T13:55:02.852Z,55.80
2018-08-14T13:57:32.438Z,55.10
2018-08-14T14:00:01.491Z,54.30
2018-08-14T14:02:30.632Z,53.90
2018-08-14T14:04:59.707Z,54.00
2018-08-14T14:07:28.917Z,54.60
2018-08-14T14:09:57.986Z,55.90
2018-08-14T14:12:27.018Z,56.30
2018-08-14T14:14:56.102Z,57.20
2018-08-14T14:17:25.249Z,58.00
2018-08-14T14:19:54.477Z,59.10
2018-08-14T14:22:23.616Z,62.10
2018-08-14T14:24:52.684Z,63.10
2018-08-14T14:27:22.035Z,64.90
2018-08-14T14:29:51.100Z,65.30
2018-08-14T14:32:20.146Z,65.50
2018-08-14T14:34:49.274Z,64.20
2018-08-14T14:37:18.374Z,64.30
2018-08-14T14:39:47.366Z,64.30
2018-08-14T14:42:16.470Z,68.10
2018-08-14T14:44:45.529Z,68.80
2018-08-14T14:47:14.897Z,68.50
2018-08-14T14:49:44.083Z,67.10
2018-08-14T14:52:13.162Z,66.70
2018-08-14T14:54:42.249Z,67.00
2018-08-14T14:57:11.362Z,67.40
2018-08-14T14:59:40.452Z,66.20
2018-08-14T15:02:09.603Z,66.20
2018-08-14T15:04:38.705Z,66.30
2018-08-14T15:07:07.858Z,66.30
2018-08-14T15:09:36.986Z,66.00
2018-08-14T15:12:06.496Z,66.90
2018-08-14T15:14:35.551Z,68.30
2018-08-14T15:17:04.950Z,67.20
2018-08-14T15:19:34.070Z,69.50
2018-08-14T15:22:03.207Z,69.80
2018-08-14T15:24:32.267Z,69.50
2018-08-14T15:27:01.342Z,68.70
2018-08-14T15:29:30.412Z,69.00
2018-08-14T15:32:01.031Z,69.90
2018-08-14T15:34:31.576Z,67.60
2018-08-14T15:37:02.485Z,67.10
2018-08-14T15:39:31.748Z,65.30
2018-08-14T15:42:01.515Z,65.50
2018-08-14T15:44:30.651Z,64.90
2018-08-14T15:46:59.708Z,64.50
2018-08-14T15:49:28.939Z,65.20
2018-08-14T15:51:57.910Z,65.00
2018-08-14T15:54:27.038Z,64.30
2018-08-14T15:56:56.107Z,64.40
2018-08-14T15:59:25.171Z,63.80
2018-08-14T16:01:54.340Z,64.20
2018-08-14T16:04:23.418Z,63.80
2018-08-14T16:06:52.545Z,64.10
2018-08-14T16:09:22.629Z,64.20
2018-08-14T16:11:52.022Z,64.20
2018-08-14T16:14:21.049Z,63.40
2018-08-14T16:16:50.085Z,63.90
2018-08-14T16:19:19.145Z,64.40
2018-08-14T16:21:48.522Z,64.40
2018-08-14T16:24:18.224Z,64.50
2018-08-14T16:26:46.814Z,63.90
2018-08-14T16:29:15.378Z,64.10
2018-08-14T16:31:43.894Z,64.00
2018-08-14T16:34:12.462Z,63.50
2018-08-14T16:36:41.046Z,64.20
2018-08-14T16:39:11.700Z,64.60
2018-08-14T16:41:40.399Z,66.40
2018-08-14T16:44:09.277Z,66.70
2018-08-14T16:46:38.312Z,66.60
2018-08-14T16:49:06.893Z,67.50
2018-08-14T16:51:35.651Z,66.70
2018-08-14T16:54:04.364Z,66.80
2018-08-14T16:56:32.956Z,67.80
2018-08-14T16:59:01.533Z,68.90
2018-08-14T17:01:30.153Z,69.20
2018-08-14T17:03:58.724Z,71.00
2018-08-14T17:06:27.285Z,71.80
2018-08-14T17:08:55.785Z,70.30
2018-08-14T17:11:24.350Z,70.30
2018-08-14T17:13:52.928Z,69.80
2018-08-14T17:16:21.474Z,70.20
2018-08-14T17:18:50.046Z,70.60
2018-08-14T17:21:17.436Z,69.70
2018-08-14T17:23:46.010Z,69.80
2018-08-14T17:26:14.553Z,69.30
2018-08-14T17:28:43.176Z,69.80
2018-08-14T17:31:12.357Z,69.30
2018-08-14T17:33:40.952Z,69.10
2018-08-14T17:36:09.536Z,68.50
2018-08-14T17:38:38.505Z,67.70
2018-08-14T17:41:07.800Z,67.50
2018-08-14T17:43:36.451Z,67.60
2018-08-14T17:46:05.142Z,67.40
2018-08-14T17:48:33.694Z,66.90
2018-08-14T17:51:02.297Z,66.70
2018-08-14T17:53:30.857Z,67.20
2018-08-14T17:55:59.815Z,66.90
2018-08-14T17:58:28.382Z,67.60
2018-08-14T18:00:56.886Z,68.10
2018-08-14T18:03:25.441Z,68.70
2018-08-14T18:05:53.969Z,69.10
2018-08-14T18:08:22.504Z,69.20
2018-08-14T18:10:51.067Z,69.30
2018-08-14T18:13:19.629Z,69.40
2018-08-14T18:15:48.193Z,69.10
2018-08-14T18:18:16.734Z,69.60
2018-08-14T18:20:45.311Z,69.60
2018-08-14T18:23:13.837Z,69.80
2018-08-14T18:25:42.447Z,70.20
2018-08-14T18:28:11.038Z,70.00
2018-08-14T18:30:39.578Z,69.70
2018-08-14T18:33:08.271Z,70.50
2018-08-14T18:35:36.877Z,70.40
2018-08-14T18:38:05.543Z,70.10
2018-08-14T18:40:34.318Z,70.20
2018-08-14T18:43:02.841Z,70.80
2018-08-14T18:45:31.367Z,70.60
2018-08-14T18:47:59.900Z,71.00
2018-08-14T18:50:28.493Z,70.60
2018-08-14T18:52:57.025Z,71.50
2018-08-14T18:55:25.561Z,71.00
2018-08-14T18:57:54.073Z,71.80
2018-08-14T19:00:25.081Z,70.20
2018-08-14T19:02:54.778Z,71.50
2018-08-14T19:05:23.662Z,71.50
2018-08-14T19:07:52.284Z,71.40
2018-08-14T19:10:22.305Z,71.80
2018-08-14T19:12:51.751Z,71.70
2018-08-14T19:15:24.974Z,72.00
2018-08-14T19:17:53.542Z,72.00
2018-08-14T19:20:22.086Z,71.80
2018-08-14T19:22:50.665Z,71.70
2018-08-14T19:25:19.301Z,71.80
2018-08-14T19:27:47.849Z,71.50
2018-08-14T19:30:16.398Z,72.00
2018-08-14T19:32:45.611Z,72.30
2018-08-14T19:35:15.353Z,72.40
2018-08-14T19:37:43.977Z,72.60
2018-08-14T19:40:15.721Z,73.10
2018-08-14T19:42:44.643Z,72.70
2018-08-14T19:45:13.137Z,72.40
2018-08-14T19:47:42.274Z,74.10
2018-08-14T19:50:13.487Z,73.10
2018-08-14T19:52:42.042Z,73.20
2018-08-14T19:55:12.602Z,73.20
2018-08-14T19:57:42.462Z,73.20
2018-08-14T20:00:12.567Z,73.00
2018-08-14T20:02:41.735Z,72.80
2018-08-14T20:05:12.164Z,73.00
2018-08-14T20:07:40.815Z,72.40
2018-08-14T20:10:11.081Z,72.60
2018-08-14T20:12:39.821Z,72.80
2018-08-14T20:15:10.305Z,72.60
2018-08-14T20:17:38.908Z,72.60
2018-08-14T20:20:15.879Z,72.40
2018-08-14T20:22:44.506Z,73.40
2018-08-14T20:25:13.188Z,72.90
2018-08-14T20:27:41.865Z,73.70
2018-08-14T20:30:14.375Z,74.00
2018-08-14T20:32:43.010Z,73.70
2018-08-14T20:35:13.194Z,74.20
2018-08-14T20:37:42.373Z,74.20
2018-08-14T20:40:14.400Z,74.40
2018-08-14T20:42:43.417Z,74.40
2018-08-14T20:45:12.800Z,74.40
2018-08-14T20:47:41.601Z,75.90
2018-08-14T20:50:14.413Z,76.20
2018-08-14T20:52:43.188Z,76.90
2018-08-14T20:55:12.664Z,77.20
2018-08-14T20:57:42.174Z,77.10
2018-08-14T21:00:13.943Z,77.40
2018-08-14T21:02:42.508Z,77.30
2018-08-14T21:05:11.117Z,76.80
2018-08-14T21:07:39.737Z,77.10
2018-08-14T21:10:08.627Z,77.80
2018-08-14T21:12:42.458Z,77.10
2018-08-14T21:15:14.061Z,77.90
2018-08-14T21:17:43.665Z,78.50
2018-08-14T21:20:14.140Z,78.30
2018-08-14T21:22:43.486Z,77.60
2018-08-14T21:25:12.098Z,76.80
2018-08-14T21:27:40.691Z,77.10
2018-08-14T21:30:11.530Z,77.70
2018-08-14T21:32:40.257Z,78.20
2018-08-14T21:35:11.644Z,78.10
2018-08-14T21:37:40.349Z,78.40
2018-08-14T21:40:12.267Z,78.80
2018-08-14T21:42:41.146Z,79.30
2018-08-14T21:45:11.805Z,79.40
2018-08-14T21:47:40.429Z,79.00
2018-08-14T21:50:09.038Z,79.50
2018-08-14T21:52:38.121Z,79.50
2018-08-14T21:55:08.125Z,79.40
2018-08-14T21:57:36.749Z,79.50
2018-08-14T22:00:30.485Z,78.90
2018-08-14T22:02:59.021Z,78.90
2018-08-14T22:05:27.942Z,78.40
2018-08-14T22:07:56.483Z,78.90
2018-08-14T22:10:25.073Z,79.00
2018-08-14T22:12:53.825Z,78.60
2018-08-14T22:15:22.386Z,77.90
2018-08-14T22:17:50.905Z,78.30
2018-08-14T22:20:19.964Z,78.40
2018-08-14T22:22:49.025Z,78.50
2018-08-14T22:25:18.133Z,77.80
2018-08-14T22:27:47.252Z,77.30
2018-08-14T22:30:16.355Z,76.80
2018-08-14T22:32:45.553Z,76.40
2018-08-14T22:35:14.653Z,75.60
2018-08-14T22:37:43.806Z,75.40
2018-08-14T22:40:12.834Z,75.00
2018-08-14T22:42:41.866Z,74.70
2018-08-14T22:45:11.209Z,74.70
2018-08-14T22:47:41.041Z,74.60
2018-08-14T22:50:10.457Z,75.20
2018-08-14T22:52:39.955Z,74.20
2018-08-14T22:55:10.579Z,74.20
2018-08-14T22:57:40.743Z,74.10
2018-08-14T23:00:14.260Z,74.30
2018-08-14T23:02:43.673Z,74.20
2018-08-14T23:05:13.591Z,75.00
2018-08-14T23:07:42.640Z,75.00
2018-08-14T23:10:11.893Z,74.50
2018-08-14T23:12:40.966Z,73.90
2018-08-14T23:15:11.404Z,73.80
2018-08-14T23:17:40.533Z,73.60
2018-08-14T23:20:12.063Z,73.20
2018-08-14T23:22:41.234Z,72.80
2018-08-14T23:25:11.510Z,72.40
2018-08-14T23:27:40.662Z,72.10
2018-08-14T23:30:13.289Z,72.20
2018-08-14T23:32:42.441Z,72.30
2018-08-14T23:35:11.504Z,72.60
2018-08-14T23:37:40.593Z,72.60
2018-08-14T23:40:11.718Z,72.60
2018-08-14T23:42:40.830Z,73.00
2018-08-14T23:45:10.625Z,73.40
2018-08-14T23:47:39.716Z,74.10
2018-08-14T23:50:11.192Z,74.60
2018-08-14T23:52:40.791Z,75.00
2018-08-14T23:55:11.060Z,73.40
2018-08-14T23:57:40.094Z,73.60
